Peristerion, Greece
Current Conditions -  °F | °C
As of 1:20 PM on Tuesday 21 Oct 2014 (Local Time) from LGEL Reporting Station
Clear Clear  
Wind Chill: 73°   Ceiling: Unl
Heat Index: 73°   Visibility: 6mi
Dew Point: 50°   Wind: 7mph
Humidity: 44%   Direction: 200°SSW
Pressure: 29.97"   Gusts: NA
Location:  38.02°N, 23.7°E
Report Text: LGEL 211020Z 20006KT CAVOK 23/10 Q1015
Loading
Personal Weather Stations






























Interactive Weather Map
Tropical Storm Tracking
New forecast layout! Learn more

10-Day Weather Forecast

Advertisements
Track Severe Weather on mobile